sensor_id;sensor_type;location;lat;lon;timestamp;P1;durP1;ratioP1;P2;durP2;ratioP2
22737;SDS011;11536;50.860;4.286;2023-10-09T00:00:59;9.70;;;3.97;;
22737;SDS011;11536;50.860;4.286;2023-10-09T00:03:29;10.45;;;3.95;;
22737;SDS011;11536;50.860;4.286;2023-10-09T00:05:55;10.40;;;4.30;;
22737;SDS011;11536;50.860;4.286;2023-10-09T00:08:21;9.32;;;3.47;;
22737;SDS011;11536;50.860;4.286;2023-10-09T00:10:51;11.95;;;3.85;;
22737;SDS011;11536;50.860;4.286;2023-10-09T00:13:20;8.85;;;3.38;;
22737;SDS011;11536;50.860;4.286;2023-10-09T00:16:05;10.60;;;3.88;;
22737;SDS011;11536;50.860;4.286;2023-10-09T00:18:40;11.73;;;4.22;;
22737;SDS011;11536;50.860;4.286;2023-10-09T00:21:18;9.15;;;3.75;;
22737;SDS011;11536;50.860;4.286;2023-10-09T00:23:48;7.82;;;3.17;;
22737;SDS011;11536;50.860;4.286;2023-10-09T00:26:24;8.93;;;3.28;;
22737;SDS011;11536;50.860;4.286;2023-10-09T00:28:50;8.32;;;3.67;;
22737;SDS011;11536;50.860;4.286;2023-10-09T00:31:19;9.57;;;4.32;;
22737;SDS011;11536;50.860;4.286;2023-10-09T00:34:03;9.50;;;3.75;;
22737;SDS011;11536;50.860;4.286;2023-10-09T00:36:30;7.22;;;3.40;;
22737;SDS011;11536;50.860;4.286;2023-10-09T00:38:57;9.13;;;3.53;;
22737;SDS011;11536;50.860;4.286;2023-10-09T00:41:26;9.07;;;3.80;;
22737;SDS011;11536;50.860;4.286;2023-10-09T00:43:54;9.57;;;3.33;;
22737;SDS011;11536;50.860;4.286;2023-10-09T00:46:24;11.18;;;3.83;;
22737;SDS011;11536;50.860;4.286;2023-10-09T00:48:53;8.88;;;3.83;;
22737;SDS011;11536;50.860;4.286;2023-10-09T00:51:21;11.43;;;3.75;;
22737;SDS011;11536;50.860;4.286;2023-10-09T00:53:49;10.10;;;4.03;;
22737;SDS011;11536;50.860;4.286;2023-10-09T00:56:18;7.97;;;3.40;;
22737;SDS011;11536;50.860;4.286;2023-10-09T00:58:51;7.80;;;3.75;;
22737;SDS011;11536;50.860;4.286;2023-10-09T01:01:24;11.02;;;3.60;;
22737;SDS011;11536;50.860;4.286;2023-10-09T01:04:00;7.20;;;2.97;;
22737;SDS011;11536;50.860;4.286;2023-10-09T01:06:31;10.48;;;3.88;;
22737;SDS011;11536;50.860;4.286;2023-10-09T01:08:59;7.15;;;3.03;;
22737;SDS011;11536;50.860;4.286;2023-10-09T01:11:35;9.45;;;3.85;;
22737;SDS011;11536;50.860;4.286;2023-10-09T01:14:12;8.65;;;3.45;;
22737;SDS011;11536;50.860;4.286;2023-10-09T01:16:38;10.00;;;3.20;;
22737;SDS011;11536;50.860;4.286;2023-10-09T01:19:08;8.73;;;3.20;;
22737;SDS011;11536;50.860;4.286;2023-10-09T01:21:52;8.85;;;3.58;;
22737;SDS011;11536;50.860;4.286;2023-10-09T01:24:18;9.45;;;3.40;;
22737;SDS011;11536;50.860;4.286;2023-10-09T01:26:45;10.02;;;3.38;;
22737;SDS011;11536;50.860;4.286;2023-10-09T01:29:12;10.65;;;4.18;;
22737;SDS011;11536;50.860;4.286;2023-10-09T01:31:41;10.18;;;3.70;;
22737;SDS011;11536;50.860;4.286;2023-10-09T01:34:23;10.35;;;3.72;;
22737;SDS011;11536;50.860;4.286;2023-10-09T01:36:59;10.80;;;3.85;;
22737;SDS011;11536;50.860;4.286;2023-10-09T01:39:25;10.13;;;3.70;;
22737;SDS011;11536;50.860;4.286;2023-10-09T01:42:07;11.25;;;4.00;;
22737;SDS011;11536;50.860;4.286;2023-10-09T01:44:34;10.57;;;4.30;;
22737;SDS011;11536;50.860;4.286;2023-10-09T01:47:03;11.02;;;4.32;;
22737;SDS011;11536;50.860;4.286;2023-10-09T01:49:34;9.90;;;3.72;;
22737;SDS011;11536;50.860;4.286;2023-10-09T01:52:02;14.45;;;4.10;;
22737;SDS011;11536;50.860;4.286;2023-10-09T01:54:36;9.63;;;3.97;;
22737;SDS011;11536;50.860;4.286;2023-10-09T01:57:05;10.32;;;4.32;;
22737;SDS011;11536;50.860;4.286;2023-10-09T01:59:41;9.45;;;4.15;;
22737;SDS011;11536;50.860;4.286;2023-10-09T02:02:14;12.45;;;4.75;;
22737;SDS011;11536;50.860;4.286;2023-10-09T02:04:59;11.80;;;4.53;;
22737;SDS011;11536;50.860;4.286;2023-10-09T02:07:38;9.40;;;3.92;;
22737;SDS011;11536;50.860;4.286;2023-10-09T02:10:16;11.60;;;4.65;;
22737;SDS011;11536;50.860;4.286;2023-10-09T02:13:01;10.27;;;4.45;;
22737;SDS011;11536;50.860;4.286;2023-10-09T02:15:40;10.93;;;3.95;;
22737;SDS011;11536;50.860;4.286;2023-10-09T02:18:09;9.13;;;4.22;;
22737;SDS011;11536;50.860;4.286;2023-10-09T02:23:28;10.07;;;4.60;;
22737;SDS011;11536;50.860;4.286;2023-10-09T02:26:05;10.82;;;4.45;;
22737;SDS011;11536;50.860;4.286;2023-10-09T02:28:32;10.15;;;4.45;;
22737;SDS011;11536;50.860;4.286;2023-10-09T02:31:00;10.98;;;4.38;;
22737;SDS011;11536;50.860;4.286;2023-10-09T02:33:27;10.00;;;4.45;;
22737;SDS011;11536;50.860;4.286;2023-10-09T02:35:54;9.48;;;3.75;;
22737;SDS011;11536;50.860;4.286;2023-10-09T02:38:20;12.85;;;4.20;;
22737;SDS011;11536;50.860;4.286;2023-10-09T02:40:51;10.40;;;4.88;;
22737;SDS011;11536;50.860;4.286;2023-10-09T02:43:29;11.85;;;4.40;;
22737;SDS011;11536;50.860;4.286;2023-10-09T02:46:05;13.68;;;4.53;;
22737;SDS011;11536;50.860;4.286;2023-10-09T02:48:45;10.23;;;4.43;;
22737;SDS011;11536;50.860;4.286;2023-10-09T02:51:22;8.30;;;3.88;;
22737;SDS011;11536;50.860;4.286;2023-10-09T02:53:52;9.45;;;4.15;;
22737;SDS011;11536;50.860;4.286;2023-10-09T02:56:18;12.07;;;4.60;;
22737;SDS011;11536;50.860;4.286;2023-10-09T02:58:52;10.55;;;4.10;;
22737;SDS011;11536;50.860;4.286;2023-10-09T03:01:30;9.85;;;4.63;;
22737;SDS011;11536;50.860;4.286;2023-10-09T03:03:56;16.05;;;4.38;;
22737;SDS011;11536;50.860;4.286;2023-10-09T03:06:24;10.27;;;4.65;;
22737;SDS011;11536;50.860;4.286;2023-10-09T03:08:55;11.27;;;4.22;;
22737;SDS011;11536;50.860;4.286;2023-10-09T03:11:22;10.52;;;4.07;;
22737;SDS011;11536;50.860;4.286;2023-10-09T03:13:48;13.40;;;4.95;;
22737;SDS011;11536;50.860;4.286;2023-10-09T03:16:14;11.00;;;5.07;;
22737;SDS011;11536;50.860;4.286;2023-10-09T03:18:41;14.18;;;5.10;;
22737;SDS011;11536;50.860;4.286;2023-10-09T03:21:07;14.55;;;5.45;;
22737;SDS011;11536;50.860;4.286;2023-10-09T03:23:33;12.13;;;5.03;;
22737;SDS011;11536;50.860;4.286;2023-10-09T03:25:59;10.50;;;4.70;;
22737;SDS011;11536;50.860;4.286;2023-10-09T03:28:25;10.50;;;5.07;;
22737;SDS011;11536;50.860;4.286;2023-10-09T03:30:51;12.77;;;4.97;;
22737;SDS011;11536;50.860;4.286;2023-10-09T03:33:18;11.50;;;5.00;;
22737;SDS011;11536;50.860;4.286;2023-10-09T03:35:44;8.93;;;4.68;;
22737;SDS011;11536;50.860;4.286;2023-10-09T03:38:10;14.93;;;5.82;;
22737;SDS011;11536;50.860;4.286;2023-10-09T03:40:42;13.25;;;6.07;;
22737;SDS011;11536;50.860;4.286;2023-10-09T03:43:09;12.15;;;5.00;;
22737;SDS011;11536;50.860;4.286;2023-10-09T03:45:36;14.68;;;5.90;;
22737;SDS011;11536;50.860;4.286;2023-10-09T03:48:04;13.98;;;5.95;;
22737;SDS011;11536;50.860;4.286;2023-10-09T03:50:51;9.25;;;4.45;;
22737;SDS011;11536;50.860;4.286;2023-10-09T03:53:33;11.98;;;5.43;;
22737;SDS011;11536;50.860;4.286;2023-10-09T03:56:01;12.45;;;6.03;;
22737;SDS011;11536;50.860;4.286;2023-10-09T03:58:39;12.60;;;5.45;;
22737;SDS011;11536;50.860;4.286;2023-10-09T04:01:10;10.43;;;4.95;;
22737;SDS011;11536;50.860;4.286;2023-10-09T04:03:49;12.05;;;4.97;;
22737;SDS011;11536;50.860;4.286;2023-10-09T04:06:20;11.65;;;4.85;;
22737;SDS011;11536;50.860;4.286;2023-10-09T04:08:54;13.57;;;5.68;;
22737;SDS011;11536;50.860;4.286;2023-10-09T04:11:20;13.43;;;5.32;;
22737;SDS011;11536;50.860;4.286;2023-10-09T04:13:48;12.15;;;5.00;;
22737;SDS011;11536;50.860;4.286;2023-10-09T04:16:25;16.30;;;6.07;;
22737;SDS011;11536;50.860;4.286;2023-10-09T04:18:56;11.65;;;5.35;;
22737;SDS011;11536;50.860;4.286;2023-10-09T04:21:23;13.10;;;6.07;;
22737;SDS011;11536;50.860;4.286;2023-10-09T04:24:02;13.50;;;5.18;;
22737;SDS011;11536;50.860;4.286;2023-10-09T04:26:36;12.18;;;5.05;;
22737;SDS011;11536;50.860;4.286;2023-10-09T04:29:09;12.05;;;5.75;;
22737;SDS011;11536;50.860;4.286;2023-10-09T04:31:51;12.75;;;5.65;;
22737;SDS011;11536;50.860;4.286;2023-10-09T04:34:20;12.98;;;5.97;;
22737;SDS011;11536;50.860;4.286;2023-10-09T04:36:47;13.52;;;5.55;;
22737;SDS011;11536;50.860;4.286;2023-10-09T04:39:21;12.75;;;5.32;;
22737;SDS011;11536;50.860;4.286;2023-10-09T04:41:56;12.98;;;5.22;;
22737;SDS011;11536;50.860;4.286;2023-10-09T04:44:41;10.70;;;5.20;;
22737;SDS011;11536;50.860;4.286;2023-10-09T04:47:28;9.85;;;4.90;;
22737;SDS011;11536;50.860;4.286;2023-10-09T04:50:07;16.30;;;5.72;;
22737;SDS011;11536;50.860;4.286;2023-10-09T04:52:36;13.88;;;5.88;;
22737;SDS011;11536;50.860;4.286;2023-10-09T04:55:05;13.73;;;5.40;;
22737;SDS011;11536;50.860;4.286;2023-10-09T04:57:32;13.13;;;5.15;;
22737;SDS011;11536;50.860;4.286;2023-10-09T05:00:14;9.25;;;4.97;;
22737;SDS011;11536;50.860;4.286;2023-10-09T05:02:50;15.32;;;6.00;;
22737;SDS011;11536;50.860;4.286;2023-10-09T05:05:26;13.75;;;5.32;;
22737;SDS011;11536;50.860;4.286;2023-10-09T05:08:14;13.83;;;5.60;;
22737;SDS011;11536;50.860;4.286;2023-10-09T05:10:54;13.60;;;5.20;;
22737;SDS011;11536;50.860;4.286;2023-10-09T05:13:23;12.00;;;5.75;;
22737;SDS011;11536;50.860;4.286;2023-10-09T05:16:08;11.73;;;5.45;;
22737;SDS011;11536;50.860;4.286;2023-10-09T05:18:50;13.85;;;5.90;;
22737;SDS011;11536;50.860;4.286;2023-10-09T05:21:25;13.32;;;6.15;;
22737;SDS011;11536;50.860;4.286;2023-10-09T05:23:56;12.80;;;6.35;;
22737;SDS011;11536;50.860;4.286;2023-10-09T05:26:36;12.27;;;6.07;;
22737;SDS011;11536;50.860;4.286;2023-10-09T05:29:12;13.82;;;6.07;;
22737;SDS011;11536;50.860;4.286;2023-10-09T05:31:45;13.63;;;5.88;;
22737;SDS011;11536;50.860;4.286;2023-10-09T05:34:22;13.10;;;5.88;;
22737;SDS011;11536;50.860;4.286;2023-10-09T05:36:48;14.05;;;5.47;;
22737;SDS011;11536;50.860;4.286;2023-10-09T05:39:14;12.98;;;5.70;;
22737;SDS011;11536;50.860;4.286;2023-10-09T05:41:47;12.52;;;6.03;;
22737;SDS011;11536;50.860;4.286;2023-10-09T05:44:12;15.02;;;6.18;;
22737;SDS011;11536;50.860;4.286;2023-10-09T05:46:57;13.68;;;5.65;;
22737;SDS011;11536;50.860;4.286;2023-10-09T05:49:42;13.82;;;6.18;;
22737;SDS011;11536;50.860;4.286;2023-10-09T05:52:23;14.43;;;5.50;;
22737;SDS011;11536;50.860;4.286;2023-10-09T05:55:07;11.00;;;5.18;;
22737;SDS011;11536;50.860;4.286;2023-10-09T05:57:45;12.80;;;5.53;;
22737;SDS011;11536;50.860;4.286;2023-10-09T06:00:24;11.98;;;4.95;;
22737;SDS011;11536;50.860;4.286;2023-10-09T06:03:08;16.27;;;6.40;;
22737;SDS011;11536;50.860;4.286;2023-10-09T06:05:44;13.07;;;5.95;;
22737;SDS011;11536;50.860;4.286;2023-10-09T06:08:19;12.18;;;5.90;;
22737;SDS011;11536;50.860;4.286;2023-10-09T06:11:03;13.95;;;6.22;;
22737;SDS011;11536;50.860;4.286;2023-10-09T06:13:55;12.60;;;5.97;;
22737;SDS011;11536;50.860;4.286;2023-10-09T06:16:30;13.15;;;5.57;;
22737;SDS011;11536;50.860;4.286;2023-10-09T06:19:05;12.50;;;5.63;;
22737;SDS011;11536;50.860;4.286;2023-10-09T06:21:36;11.65;;;5.55;;
22737;SDS011;11536;50.860;4.286;2023-10-09T06:24:23;10.43;;;5.47;;
22737;SDS011;11536;50.860;4.286;2023-10-09T06:26:51;15.55;;;6.00;;
22737;SDS011;11536;50.860;4.286;2023-10-09T06:29:38;11.45;;;5.63;;
22737;SDS011;11536;50.860;4.286;2023-10-09T06:32:11;13.75;;;6.07;;
22737;SDS011;11536;50.860;4.286;2023-10-09T06:34:43;12.73;;;6.43;;
22737;SDS011;11536;50.860;4.286;2023-10-09T06:37:11;13.77;;;6.25;;
22737;SDS011;11536;50.860;4.286;2023-10-09T06:39:52;17.20;;;6.63;;
22737;SDS011;11536;50.860;4.286;2023-10-09T06:42:22;12.02;;;5.93;;
22737;SDS011;11536;50.860;4.286;2023-10-09T06:45:04;11.52;;;5.35;;
22737;SDS011;11536;50.860;4.286;2023-10-09T06:47:47;16.77;;;6.28;;
22737;SDS011;11536;50.860;4.286;2023-10-09T06:50:33;14.40;;;6.50;;
22737;SDS011;11536;50.860;4.286;2023-10-09T06:53:18;14.77;;;6.65;;
22737;SDS011;11536;50.860;4.286;2023-10-09T06:55:44;12.70;;;6.30;;
22737;SDS011;11536;50.860;4.286;2023-10-09T06:58:14;11.50;;;5.82;;
22737;SDS011;11536;50.860;4.286;2023-10-09T07:01:07;13.98;;;6.88;;
22737;SDS011;11536;50.860;4.286;2023-10-09T07:03:56;13.57;;;6.35;;
22737;SDS011;11536;50.860;4.286;2023-10-09T07:06:35;15.40;;;6.57;;
22737;SDS011;11536;50.860;4.286;2023-10-09T07:09:01;14.60;;;6.13;;
22737;SDS011;11536;50.860;4.286;2023-10-09T07:11:33;15.30;;;6.53;;
22737;SDS011;11536;50.860;4.286;2023-10-09T07:14:06;15.18;;;6.07;;
22737;SDS011;11536;50.860;4.286;2023-10-09T07:17:06;9.82;;;5.25;;
22737;SDS011;11536;50.860;4.286;2023-10-09T07:20:09;14.93;;;6.50;;
22737;SDS011;11536;50.860;4.286;2023-10-09T07:23:02;11.82;;;6.10;;
22737;SDS011;11536;50.860;4.286;2023-10-09T07:25:39;13.02;;;7.05;;
22737;SDS011;11536;50.860;4.286;2023-10-09T07:28:06;15.98;;;6.35;;
22737;SDS011;11536;50.860;4.286;2023-10-09T07:30:44;15.75;;;6.55;;
22737;SDS011;11536;50.860;4.286;2023-10-09T07:33:11;15.27;;;6.85;;
22737;SDS011;11536;50.860;4.286;2023-10-09T07:35:38;15.55;;;6.82;;
22737;SDS011;11536;50.860;4.286;2023-10-09T07:40:36;12.48;;;6.25;;
22737;SDS011;11536;50.860;4.286;2023-10-09T07:43:22;17.10;;;5.90;;
22737;SDS011;11536;50.860;4.286;2023-10-09T07:46:02;15.25;;;7.63;;
22737;SDS011;11536;50.860;4.286;2023-10-09T07:48:46;13.50;;;6.30;;
22737;SDS011;11536;50.860;4.286;2023-10-09T07:51:18;13.70;;;7.50;;
22737;SDS011;11536;50.860;4.286;2023-10-09T07:53:59;13.85;;;6.95;;
22737;SDS011;11536;50.860;4.286;2023-10-09T07:59:18;14.27;;;7.07;;
22737;SDS011;11536;50.860;4.286;2023-10-09T08:01:45;16.15;;;7.22;;
22737;SDS011;11536;50.860;4.286;2023-10-09T08:04:18;13.95;;;6.53;;
22737;SDS011;11536;50.860;4.286;2023-10-09T08:07:02;15.20;;;6.60;;
22737;SDS011;11536;50.860;4.286;2023-10-09T08:09:44;17.50;;;7.65;;
22737;SDS011;11536;50.860;4.286;2023-10-09T08:12:13;15.32;;;7.30;;
22737;SDS011;11536;50.860;4.286;2023-10-09T08:14:43;15.55;;;7.25;;
22737;SDS011;11536;50.860;4.286;2023-10-09T08:17:10;15.60;;;6.50;;
22737;SDS011;11536;50.860;4.286;2023-10-09T08:19:49;13.50;;;6.63;;
22737;SDS011;11536;50.860;4.286;2023-10-09T08:22:22;15.52;;;7.43;;
22737;SDS011;11536;50.860;4.286;2023-10-09T08:24:54;17.33;;;7.13;;
22737;SDS011;11536;50.860;4.286;2023-10-09T08:30:13;15.05;;;7.90;;
22737;SDS011;11536;50.860;4.286;2023-10-09T08:32:41;16.58;;;7.88;;
22737;SDS011;11536;50.860;4.286;2023-10-09T08:35:11;15.45;;;7.38;;
22737;SDS011;11536;50.860;4.286;2023-10-09T08:37:57;13.85;;;7.00;;
22737;SDS011;11536;50.860;4.286;2023-10-09T08:40:31;16.20;;;7.70;;
22737;SDS011;11536;50.860;4.286;2023-10-09T08:43:00;18.98;;;8.50;;
22737;SDS011;11536;50.860;4.286;2023-10-09T08:45:35;13.57;;;7.35;;
22737;SDS011;11536;50.860;4.286;2023-10-09T08:48:07;16.75;;;7.88;;
22737;SDS011;11536;50.860;4.286;2023-10-09T08:50:40;13.82;;;6.78;;
22737;SDS011;11536;50.860;4.286;2023-10-09T08:53:07;15.82;;;7.75;;
22737;SDS011;11536;50.860;4.286;2023-10-09T08:55:36;14.50;;;7.22;;
22737;SDS011;11536;50.860;4.286;2023-10-09T08:58:04;16.75;;;7.97;;
22737;SDS011;11536;50.860;4.286;2023-10-09T09:00:49;15.70;;;7.72;;
22737;SDS011;11536;50.860;4.286;2023-10-09T09:03:15;13.30;;;7.50;;
22737;SDS011;11536;50.860;4.286;2023-10-09T09:06:02;17.48;;;8.00;;
22737;SDS011;11536;50.860;4.286;2023-10-09T09:08:28;18.95;;;7.47;;
22737;SDS011;11536;50.860;4.286;2023-10-09T09:10:58;14.73;;;7.75;;
22737;SDS011;11536;50.860;4.286;2023-10-09T09:13:37;19.15;;;7.78;;
22737;SDS011;11536;50.860;4.286;2023-10-09T09:16:16;17.27;;;7.53;;
22737;SDS011;11536;50.860;4.286;2023-10-09T09:19:16;14.23;;;7.47;;
22737;SDS011;11536;50.860;4.286;2023-10-09T09:21:35;13.90;;;7.25;;
22737;SDS011;11536;50.860;4.286;2023-10-09T09:24:03;16.67;;;6.80;;
22737;SDS011;11536;50.860;4.286;2023-10-09T09:26:50;18.55;;;8.27;;
22737;SDS011;11536;50.860;4.286;2023-10-09T09:29:43;14.05;;;7.07;;
22737;SDS011;11536;50.860;4.286;2023-10-09T09:32:17;15.73;;;7.25;;
22737;SDS011;11536;50.860;4.286;2023-10-09T09:35:00;15.40;;;7.67;;
22737;SDS011;11536;50.860;4.286;2023-10-09T09:37:29;15.93;;;8.20;;
22737;SDS011;11536;50.860;4.286;2023-10-09T09:40:19;16.05;;;8.02;;
22737;SDS011;11536;50.860;4.286;2023-10-09T09:43:06;16.08;;;7.93;;
22737;SDS011;11536;50.860;4.286;2023-10-09T09:45:46;16.55;;;8.55;;
22737;SDS011;11536;50.860;4.286;2023-10-09T09:48:14;17.48;;;8.38;;
22737;SDS011;11536;50.860;4.286;2023-10-09T09:50:42;15.43;;;8.02;;
22737;SDS011;11536;50.860;4.286;2023-10-09T09:55:42;15.50;;;8.45;;
22737;SDS011;11536;50.860;4.286;2023-10-09T09:58:17;14.75;;;7.13;;
22737;SDS011;11536;50.860;4.286;2023-10-09T10:00:48;17.35;;;8.10;;
22737;SDS011;11536;50.860;4.286;2023-10-09T10:03:22;13.32;;;7.03;;
22737;SDS011;11536;50.860;4.286;2023-10-09T10:05:52;14.18;;;7.18;;
22737;SDS011;11536;50.860;4.286;2023-10-09T10:08:22;15.55;;;7.47;;
22737;SDS011;11536;50.860;4.286;2023-10-09T10:10:56;16.65;;;8.27;;
22737;SDS011;11536;50.860;4.286;2023-10-09T10:16:08;17.23;;;7.15;;
22737;SDS011;11536;50.860;4.286;2023-10-09T10:21:39;16.52;;;7.68;;
22737;SDS011;11536;50.860;4.286;2023-10-09T10:35:16;13.38;;;7.10;;
22737;SDS011;11536;50.860;4.286;2023-10-09T10:37:45;15.25;;;7.60;;
22737;SDS011;11536;50.860;4.286;2023-10-09T10:40:26;15.02;;;7.53;;
22737;SDS011;11536;50.860;4.286;2023-10-09T10:43:20;17.92;;;8.30;;
22737;SDS011;11536;50.860;4.286;2023-10-09T10:46:05;16.95;;;8.43;;
22737;SDS011;11536;50.860;4.286;2023-10-09T10:48:56;17.17;;;7.95;;
22737;SDS011;11536;50.860;4.286;2023-10-09T10:51:34;16.00;;;7.63;;
22737;SDS011;11536;50.860;4.286;2023-10-09T10:54:03;15.82;;;7.47;;
22737;SDS011;11536;50.860;4.286;2023-10-09T10:56:48;15.60;;;7.55;;
22737;SDS011;11536;50.860;4.286;2023-10-09T10:59:14;16.52;;;7.63;;
22737;SDS011;11536;50.860;4.286;2023-10-09T11:01:47;15.48;;;7.28;;
22737;SDS011;11536;50.860;4.286;2023-10-09T11:04:26;15.40;;;7.28;;
22737;SDS011;11536;50.860;4.286;2023-10-09T11:07:04;16.35;;;7.55;;
22737;SDS011;11536;50.860;4.286;2023-10-09T11:12:32;13.60;;;6.40;;
22737;SDS011;11536;50.860;4.286;2023-10-09T11:17:58;15.40;;;6.97;;
22737;SDS011;11536;50.860;4.286;2023-10-09T11:20:24;16.20;;;6.15;;
22737;SDS011;11536;50.860;4.286;2023-10-09T11:22:57;12.85;;;6.10;;
22737;SDS011;11536;50.860;4.286;2023-10-09T11:25:45;14.93;;;6.75;;
22737;SDS011;11536;50.860;4.286;2023-10-09T11:28:21;13.20;;;6.45;;
22737;SDS011;11536;50.860;4.286;2023-10-09T11:31:14;14.02;;;6.03;;
22737;SDS011;11536;50.860;4.286;2023-10-09T11:34:00;14.90;;;6.60;;
22737;SDS011;11536;50.860;4.286;2023-10-09T11:36:27;18.20;;;6.40;;
22737;SDS011;11536;50.860;4.286;2023-10-09T11:38:59;14.68;;;6.93;;
22737;SDS011;11536;50.860;4.286;2023-10-09T11:41:41;15.60;;;6.93;;
22737;SDS011;11536;50.860;4.286;2023-10-09T11:44:07;17.30;;;7.13;;
22737;SDS011;11536;50.860;4.286;2023-10-09T11:46:57;13.27;;;6.80;;
22737;SDS011;11536;50.860;4.286;2023-10-09T11:49:23;14.32;;;6.07;;
22737;SDS011;11536;50.860;4.286;2023-10-09T11:52:09;14.73;;;6.60;;
22737;SDS011;11536;50.860;4.286;2023-10-09T11:54:55;14.13;;;6.55;;
22737;SDS011;11536;50.860;4.286;2023-10-09T11:57:21;15.05;;;6.00;;
22737;SDS011;11536;50.860;4.286;2023-10-09T11:59:55;15.98;;;8.02;;
22737;SDS011;11536;50.860;4.286;2023-10-09T12:02:21;13.00;;;6.60;;
22737;SDS011;11536;50.860;4.286;2023-10-09T12:04:47;14.93;;;6.70;;
22737;SDS011;11536;50.860;4.286;2023-10-09T12:07:12;13.80;;;6.35;;
22737;SDS011;11536;50.860;4.286;2023-10-09T12:09:38;14.57;;;6.95;;
22737;SDS011;11536;50.860;4.286;2023-10-09T12:12:05;14.40;;;6.40;;
22737;SDS011;11536;50.860;4.286;2023-10-09T12:14:32;17.48;;;7.80;;
22737;SDS011;11536;50.860;4.286;2023-10-09T12:17:08;19.35;;;6.95;;
22737;SDS011;11536;50.860;4.286;2023-10-09T12:19:34;15.38;;;7.10;;
22737;SDS011;11536;50.860;4.286;2023-10-09T12:22:01;20.38;;;7.00;;
22737;SDS011;11536;50.860;4.286;2023-10-09T12:24:33;12.75;;;6.72;;
22737;SDS011;11536;50.860;4.286;2023-10-09T12:27:00;15.40;;;6.60;;
22737;SDS011;11536;50.860;4.286;2023-10-09T12:29:26;11.82;;;6.03;;
22737;SDS011;11536;50.860;4.286;2023-10-09T12:31:58;15.38;;;7.35;;
22737;SDS011;11536;50.860;4.286;2023-10-09T12:34:24;15.88;;;6.63;;
22737;SDS011;11536;50.860;4.286;2023-10-09T12:36:55;15.45;;;6.15;;
22737;SDS011;11536;50.860;4.286;2023-10-09T12:41:56;14.93;;;6.57;;
22737;SDS011;11536;50.860;4.286;2023-10-09T12:44:23;17.90;;;6.07;;
22737;SDS011;11536;50.860;4.286;2023-10-09T12:46:52;13.63;;;6.90;;
22737;SDS011;11536;50.860;4.286;2023-10-09T12:49:18;15.55;;;6.57;;
22737;SDS011;11536;50.860;4.286;2023-10-09T12:51:53;18.80;;;6.72;;
22737;SDS011;11536;50.860;4.286;2023-10-09T12:54:19;16.98;;;6.60;;
22737;SDS011;11536;50.860;4.286;2023-10-09T12:56:49;13.45;;;6.53;;
22737;SDS011;11536;50.860;4.286;2023-10-09T12:59:14;16.60;;;6.43;;
22737;SDS011;11536;50.860;4.286;2023-10-09T13:01:43;18.52;;;6.32;;
22737;SDS011;11536;50.860;4.286;2023-10-09T13:04:12;14.00;;;5.75;;
22737;SDS011;11536;50.860;4.286;2023-10-09T13:06:41;14.07;;;6.20;;
22737;SDS011;11536;50.860;4.286;2023-10-09T13:09:16;12.40;;;5.85;;
22737;SDS011;11536;50.860;4.286;2023-10-09T13:12:00;15.07;;;5.03;;
22737;SDS011;11536;50.860;4.286;2023-10-09T13:14:26;16.20;;;5.15;;
22737;SDS011;11536;50.860;4.286;2023-10-09T13:16:53;16.35;;;5.53;;
22737;SDS011;11536;50.860;4.286;2023-10-09T13:19:19;11.95;;;5.53;;
22737;SDS011;11536;50.860;4.286;2023-10-09T13:21:49;15.32;;;5.97;;
22737;SDS011;11536;50.860;4.286;2023-10-09T13:24:15;12.38;;;5.13;;
22737;SDS011;11536;50.860;4.286;2023-10-09T13:26:43;26.20;;;6.47;;
22737;SDS011;11536;50.860;4.286;2023-10-09T13:29:11;16.83;;;6.30;;
22737;SDS011;11536;50.860;4.286;2023-10-09T13:31:38;16.08;;;6.38;;
22737;SDS011;11536;50.860;4.286;2023-10-09T13:34:05;15.23;;;6.82;;
22737;SDS011;11536;50.860;4.286;2023-10-09T13:36:31;13.13;;;5.45;;
22737;SDS011;11536;50.860;4.286;2023-10-09T13:39:06;15.70;;;6.90;;
22737;SDS011;11536;50.860;4.286;2023-10-09T13:41:48;18.85;;;6.25;;
22737;SDS011;11536;50.860;4.286;2023-10-09T13:44:29;17.90;;;5.50;;
22737;SDS011;11536;50.860;4.286;2023-10-09T13:46:57;14.77;;;6.20;;
22737;SDS011;11536;50.860;4.286;2023-10-09T13:49:27;14.23;;;6.65;;
22737;SDS011;11536;50.860;4.286;2023-10-09T13:51:56;13.60;;;6.45;;
22737;SDS011;11536;50.860;4.286;2023-10-09T13:54:26;17.10;;;7.10;;
22737;SDS011;11536;50.860;4.286;2023-10-09T13:56:58;13.13;;;5.90;;
22737;SDS011;11536;50.860;4.286;2023-10-09T13:59:24;14.30;;;5.43;;
22737;SDS011;11536;50.860;4.286;2023-10-09T14:01:53;17.13;;;6.25;;
22737;SDS011;11536;50.860;4.286;2023-10-09T14:04:20;18.63;;;5.75;;
22737;SDS011;11536;50.860;4.286;2023-10-09T14:06:48;16.63;;;5.97;;
22737;SDS011;11536;50.860;4.286;2023-10-09T14:09:14;18.67;;;6.70;;
22737;SDS011;11536;50.860;4.286;2023-10-09T14:12:18;15.02;;;6.72;;
22737;SDS011;11536;50.860;4.286;2023-10-09T14:14:46;19.67;;;6.47;;
22737;SDS011;11536;50.860;4.286;2023-10-09T14:17:13;19.00;;;6.80;;
22737;SDS011;11536;50.860;4.286;2023-10-09T14:22:15;14.73;;;7.40;;
22737;SDS011;11536;50.860;4.286;2023-10-09T14:24:45;15.13;;;6.95;;
22737;SDS011;11536;50.860;4.286;2023-10-09T14:27:13;13.13;;;6.20;;
22737;SDS011;11536;50.860;4.286;2023-10-09T14:29:45;13.50;;;6.38;;
22737;SDS011;11536;50.860;4.286;2023-10-09T14:32:11;14.57;;;6.15;;
22737;SDS011;11536;50.860;4.286;2023-10-09T14:34:41;14.32;;;6.22;;
22737;SDS011;11536;50.860;4.286;2023-10-09T14:37:19;11.63;;;5.55;;
22737;SDS011;11536;50.860;4.286;2023-10-09T14:39:45;12.70;;;5.38;;
22737;SDS011;11536;50.860;4.286;2023-10-09T14:42:17;12.00;;;5.78;;
22737;SDS011;11536;50.860;4.286;2023-10-09T14:44:45;12.80;;;6.25;;
22737;SDS011;11536;50.860;4.286;2023-10-09T14:47:11;15.43;;;5.80;;
22737;SDS011;11536;50.860;4.286;2023-10-09T14:49:39;12.43;;;5.32;;
22737;SDS011;11536;50.860;4.286;2023-10-09T14:52:14;14.02;;;6.68;;
22737;SDS011;11536;50.860;4.286;2023-10-09T14:54:45;14.30;;;6.80;;
22737;SDS011;11536;50.860;4.286;2023-10-09T14:57:11;13.60;;;6.30;;
22737;SDS011;11536;50.860;4.286;2023-10-09T14:59:38;17.75;;;5.68;;
22737;SDS011;11536;50.860;4.286;2023-10-09T15:02:05;11.55;;;4.97;;
22737;SDS011;11536;50.860;4.286;2023-10-09T15:04:31;17.52;;;6.25;;
22737;SDS011;11536;50.860;4.286;2023-10-09T15:07:00;11.90;;;5.38;;
22737;SDS011;11536;50.860;4.286;2023-10-09T15:09:26;18.38;;;5.93;;
22737;SDS011;11536;50.860;4.286;2023-10-09T15:11:56;13.50;;;5.80;;
22737;SDS011;11536;50.860;4.286;2023-10-09T15:14:23;18.38;;;6.40;;
22737;SDS011;11536;50.860;4.286;2023-10-09T15:16:49;11.68;;;5.30;;
22737;SDS011;11536;50.860;4.286;2023-10-09T15:19:15;18.38;;;6.20;;
22737;SDS011;11536;50.860;4.286;2023-10-09T15:21:45;13.43;;;4.90;;
22737;SDS011;11536;50.860;4.286;2023-10-09T15:24:11;14.57;;;5.90;;
22737;SDS011;11536;50.860;4.286;2023-10-09T15:26:44;11.13;;;5.60;;
22737;SDS011;11536;50.860;4.286;2023-10-09T15:29:17;12.32;;;4.50;;
22737;SDS011;11536;50.860;4.286;2023-10-09T15:31:48;10.80;;;4.68;;
22737;SDS011;11536;50.860;4.286;2023-10-09T15:34:16;11.60;;;5.13;;
22737;SDS011;11536;50.860;4.286;2023-10-09T15:36:44;12.30;;;5.88;;
22737;SDS011;11536;50.860;4.286;2023-10-09T15:39:12;9.35;;;4.30;;
22737;SDS011;11536;50.860;4.286;2023-10-09T15:41:38;11.40;;;4.85;;
22737;SDS011;11536;50.860;4.286;2023-10-09T15:44:05;9.68;;;4.45;;
22737;SDS011;11536;50.860;4.286;2023-10-09T15:46:31;10.45;;;4.90;;
22737;SDS011;11536;50.860;4.286;2023-10-09T15:48:59;9.55;;;4.53;;
22737;SDS011;11536;50.860;4.286;2023-10-09T15:51:26;9.05;;;3.85;;